Pineville, MO

8:07 AM CDT on March 29, 2015 (GMT -0500)
NW Arkansas Airport | | Change Station
CLOSE
Current Station
Airport
Location: NW Arkansas Airport,
Elevation: 1286 ft
Nearby Weather Stations

Elev 1286 ft 36.28 °N, 94.31 °W | Updated 14 minutes ago

Clear
Clear
45 °F
Feels Like 38 °F
N
14
Wind Variable Wind from South

Today
High -- | Low -- °F
--% Chance of Precip.
Yesterday
High -- | Low -- °F
Precip. -- in
7:08 AM 7:36 PM
Waxing Gibbous, 71% visible
Pressure 30.00 in
Visibility 10.0 miles
Clouds Clear
Windchill 38 °F
Dew Point 35 °F
Humidity 68%
Rainfall 0.00 in
Snow Depth Not available.
UV 0 out of 12
Pollen 10.80 out of 12
Air Quality Not available.
Flu Activity Not available.
METAR KXNA 291253Z 17012KT 10SM CLR 07/02 A3000 RMK AO2 SLP159 T00720017

More Conditions Fewer Conditions

Pressure 30.00 in
Visibility 10.0 miles
Clouds Clear
Windchill 38 °F
Dew Point 35 °F
Humidity 68%
Rainfall 0.00 in
Snow Depth Not available.
UV 0 out of 12
Pollen 10.80 out of 12
Air Quality Not available.
Flu Activity Not available.
METAR KXNA 291253Z 17012KT 10SM CLR 07/02 A3000 RMK AO2 SLP159 T00720017

More Conditions Fewer Conditions

10-Day Weather Forecast

Almanac

Astronomy

Mar. 29, 2015 Rise Set
Actual Time
Civil Twilight
Nautical Twilight
Astronomical Twilight
Moon
Length of Visible Light
Length of Day
Tomorrow will be .
, % of the Moon is Illuminated

Today's Extremes

State Highs State Lows

Community

WunderPhotos

Upload Photos

1,809,232 photos uploaded!

WunderBlogs® & News

Nearby

Air Quality

  Air Quality AQ Index Pollutant
Not available.

Snow Depth

Station Depth Elevation

Earthquake Activity

City Distance Mag. Time & Date
Minimum magnitude displayed is 2.5.

Coastal Water Temperatures

Place Temperature

Stations

Nearby Weather Stations

Station Location Temp. Windchill Dew Point Humidity Wind Precip. Elev Updated Type